Sousse, Tunisia
Current Conditions -  °F | °C
As of 7:30 AM on Friday 24 Oct 2014 (Local Time) from DTMB Reporting Station
Few Clouds Few Clouds  
Wind Chill: 68°   Ceiling: Unl
Heat Index: 68°   Visibility: 5mi
Dew Point: 57°   Wind: 12mph
Humidity: 68%   Direction: 280°W
Pressure: 29.88"   Gusts: NA
Location:  35.82°N, 10.63°E
Report Text: DTMB 240630Z 28010KT 8000 FEW020 20/14 Q1012 NOSIG
Loading
Personal Weather Stations






























Interactive Weather Map
Tropical Storm Tracking
New forecast layout! Learn more

10-Day Weather Forecast

Advertisements
Track Severe Weather on mobile